KCHD/CHD METAR and TAF weather

Enter ICAO airport designator
Station Type Date Time Source
KCHD METAR 2021/04/16 23:47 UTC NOAA

KCHD 162347Z 22009KT 10SM BKN250 27/M13 A2979


Station Type Date Time Source
KCHD Decoded METAR 2021/04/16 23:47 UTC NOAA

Chandler, Chandler Municipal Airport, AZ, United States (KCHD) 33-16-09N 111-48-40W
Apr 16, 2021 - 07:47 PM EDT / 2021.04.16 2347 UTC
Wind: from the SW (220 degrees) at 10 MPH (9 KT):0
Visibility: 10 mile(s):0
Sky conditions: mostly cloudy
Temperature: 80 F (27 C)
Dew Point: 8 F (-13 C)
Relative Humidity: 6%
Pressure (altimeter): 29.79 in. Hg (1008 hPa)
ob: KCHD 162347Z 22009KT 10SM BKN250 27/M13 A2979
cycle: 0

Station Type Date Time Source
KCHD TAF UTC NOAA

Error!

Example: see airport list